Time;durP1;ratioP1;P1;durP2;ratioP2;P2;SDS_P1;SDS_P2;PMS_P1;PMS_P2;Temp;Humidity;BMP_temperature;BMP_pressure;BME280_temperature;BME280_humidity;BME280_pressure;Samples;Min_cycle;Max_cycle;Signal;HPM_P1;HPM_P2
2022/01/25 00:26:39;;;;;;;37.00;20.60;;;2.90;99.90;;;;;;5073072;28;20716;-69
2022/01/25 00:29:09;;;;;;;30.70;19.60;;;2.90;99.90;;;;;;5073364;28;20230;-68
2022/01/25 00:31:39;;;;;;;28.80;20.27;;;2.80;99.90;;;;;;5073138;28;20238;-68
2022/01/25 00:34:07;;;;;;;32.55;20.58;;;2.70;99.90;;;;;;5073142;28;20222;-68
2022/01/25 00:36:34;;;;;;;27.42;19.63;;;2.80;99.90;;;;;;5073288;28;20245;-66
2022/01/25 00:39:05;;;;;;;30.25;20.38;;;2.80;99.90;;;;;;5073688;28;20690;-66
2022/01/25 00:41:32;;;;;;;30.02;20.35;;;2.80;99.90;;;;;;5073345;28;20211;-67
2022/01/25 00:44:01;;;;;;;32.40;21.55;;;2.80;99.90;;;;;;5072363;28;20290;-66
2022/01/25 00:46:28;;;;;;;29.98;21.27;;;2.80;99.90;;;;;;5073009;28;20237;-66
2022/01/25 00:49:00;;;;;;;27.63;20.20;;;2.80;99.90;;;;;;5072891;28;20580;-66
2022/01/25 00:54:32;;;;;;;31.50;20.92;;;2.90;99.90;;;;;;5036227;28;20249;-66
2022/01/25 00:57:00;;;;;;;29.20;20.00;;;2.90;99.90;;;;;;5073041;28;20198;-66
2022/01/25 00:59:29;;;;;;;28.30;19.08;;;2.80;99.90;;;;;;5073315;28;20207;-66
2022/01/25 01:01:58;;;;;;;30.83;20.20;;;2.80;99.90;;;;;;5073281;28;20571;-68
2022/01/25 01:04:27;;;;;;;28.38;19.88;;;2.90;99.90;;;;;;5073011;28;20562;-68
2022/01/25 01:06:55;;;;;;;26.75;18.00;;;2.90;99.90;;;;;;5072930;28;20223;-68
2022/01/25 01:09:23;;;;;;;26.77;19.33;;;2.80;99.90;;;;;;5072806;28;20601;-67
2022/01/25 01:11:58;;;;;;;31.17;20.52;;;2.80;99.90;;;;;;5074220;28;20289;-67
2022/01/25 01:14:39;;;;;;;35.53;22.05;;;2.60;99.90;;;;;;5074671;28;20222;-67
2022/01/25 01:17:29;;;;;;;27.60;19.40;;;2.50;99.90;;;;;;5074113;28;20241;-67
2022/01/25 01:31:02;;;;;;;30.90;19.92;;;2.40;99.90;;;;;;5073634;28;20565;-67
2022/01/25 01:36:53;;;;;;;30.55;19.70;;;2.50;99.90;;;;;;5068365;28;20237;-67
2022/01/25 01:42:48;;;;;;;33.38;20.98;;;2.40;99.90;;;;;;5073644;28;20197;-67
2022/01/25 01:45:31;;;;;;;34.00;22.02;;;2.40;99.90;;;;;;5074325;28;20211;-67
2022/01/25 01:48:03;;;;;;;31.88;20.42;;;2.40;99.90;;;;;;5073747;28;20241;-67
2022/01/25 01:50:33;;;;;;;34.65;20.85;;;2.50;99.90;;;;;;5073305;28;20203;-67
2022/01/25 01:53:02;;;;;;;28.23;21.08;;;2.50;99.90;;;;;;5073526;28;20194;-66
2022/01/25 01:55:29;;;;;;;31.52;21.48;;;2.60;99.90;;;;;;5076047;28;20202;-66
2022/01/25 01:57:57;;;;;;;31.40;21.67;;;2.60;99.90;;;;;;5077912;28;20297;-67
2022/01/25 02:00:30;;;;;;;32.92;21.73;;;2.70;99.90;;;;;;5077325;28;20202;-66
2022/01/25 02:02:57;;;;;;;28.30;19.33;;;2.60;99.90;;;;;;5077426;28;20202;-66
2022/01/25 02:05:24;;;;;;;32.13;20.35;;;2.70;99.90;;;;;;5077572;28;20677;-67
2022/01/25 02:07:51;;;;;;;32.38;20.55;;;2.70;99.90;;;;;;5077106;28;20205;-67
2022/01/25 02:10:18;;;;;;;31.13;20.77;;;2.60;99.90;;;;;;5077235;28;20302;-67
2022/01/25 02:12:46;;;;;;;31.33;20.90;;;2.60;99.90;;;;;;5077222;28;20301;-67
2022/01/25 02:15:14;;;;;;;28.55;20.20;;;2.60;99.90;;;;;;5077434;28;20222;-67
2022/01/25 02:17:59;;;;;;;32.63;22.30;;;2.60;99.90;;;;;;5076680;28;20214;-66
2022/01/25 02:23:18;;;;;;;31.58;21.23;;;2.50;99.90;;;;;;5076737;28;20296;-66
2022/01/25 02:25:46;;;;;;;35.78;22.73;;;2.50;99.90;;;;;;5077158;28;20254;-66
2022/01/25 02:28:13;;;;;;;31.77;21.15;;;2.40;99.90;;;;;;5077081;28;20256;-67
2022/01/25 02:30:41;;;;;;;33.30;21.48;;;2.40;99.90;;;;;;5076591;28;20209;-66
2022/01/25 02:33:08;;;;;;;34.40;22.05;;;2.30;99.90;;;;;;5077079;28;20301;-67
2022/01/25 02:35:36;;;;;;;31.08;20.17;;;2.30;99.90;;;;;;5076760;28;20199;-67
2022/01/25 02:38:03;;;;;;;33.88;22.30;;;2.30;99.90;;;;;;5076936;28;20203;-67
2022/01/25 02:40:30;;;;;;;35.33;22.38;;;2.40;99.90;;;;;;5076841;28;20210;-67
2022/01/25 02:42:57;;;;;;;33.75;21.58;;;2.40;99.90;;;;;;5076902;28;20358;-67
2022/01/25 02:45:31;;;;;;;30.80;21.10;;;2.40;99.90;;;;;;5077187;28;20297;-67
2022/01/25 02:50:44;;;;;;;32.47;21.40;;;2.50;99.90;;;;;;5076362;28;20560;-66
2022/01/25 02:53:11;;;;;;;32.28;21.67;;;2.50;99.90;;;;;;5075993;28;20223;-67
2022/01/25 02:55:40;;;;;;;32.20;22.05;;;2.50;99.90;;;;;;5076602;28;20202;-67
2022/01/25 02:58:08;;;;;;;33.97;22.17;;;2.50;99.90;;;;;;5076618;28;20293;-67
2022/01/25 03:00:36;;;;;;;34.13;23.02;;;2.50;99.90;;;;;;5075937;28;20214;-66
2022/01/25 03:03:03;;;;;;;39.47;24.23;;;2.50;99.90;;;;;;5076153;28;20202;-67
2022/01/25 03:05:30;;;;;;;34.35;23.00;;;2.50;99.90;;;;;;5075769;28;20664;-67
2022/01/25 03:07:58;;;;;;;32.80;22.85;;;2.60;99.90;;;;;;5075630;28;20290;-66
2022/01/25 03:10:35;;;;;;;33.67;22.48;;;2.50;99.90;;;;;;5076215;28;20691;-66
2022/01/25 03:13:02;;;;;;;36.10;23.20;;;2.50;99.90;;;;;;5076037;28;20591;-66
2022/01/25 03:15:52;;;;;;;37.38;23.98;;;2.50;99.90;;;;;;5075904;28;20229;-66
2022/01/25 03:18:37;;;;;;;34.95;23.35;;;2.50;99.90;;;;;;5075834;28;20210;-67
2022/01/25 03:21:16;;;;;;;34.83;22.58;;;2.50;99.90;;;;;;5075901;28;20238;-67
2022/01/25 03:23:45;;;;;;;35.80;23.00;;;2.50;99.90;;;;;;5076032;28;20284;-66
2022/01/25 03:26:12;;;;;;;37.88;23.45;;;2.40;99.90;;;;;;5076048;28;20222;-67
2022/01/25 03:28:39;;;;;;;36.55;24.10;;;2.50;99.90;;;;;;5076033;28;20298;-67
2022/01/25 03:31:06;;;;;;;37.15;24.25;;;2.40;99.90;;;;;;5075516;28;20205;-67
2022/01/25 03:33:33;;;;;;;32.58;22.27;;;2.40;99.90;;;;;;5075761;28;20227;-66
2022/01/25 03:36:00;;;;;;;32.65;22.92;;;2.30;99.90;;;;;;5075562;28;20194;-66
2022/01/25 03:38:27;;;;;;;33.75;21.85;;;2.30;99.90;;;;;;5075415;28;20206;-66
2022/01/25 03:40:55;;;;;;;35.35;23.40;;;2.30;99.90;;;;;;5075532;28;20210;-66
2022/01/25 03:43:22;;;;;;;34.65;22.70;;;2.20;99.90;;;;;;5075906;28;20227;-66
2022/01/25 03:46:00;;;;;;;35.22;23.40;;;2.20;99.90;;;;;;5076048;28;20611;-66
2022/01/25 03:51:11;;;;;;;38.03;24.08;;;2.00;99.90;;;;;;5075370;28;20201;-66
2022/01/25 03:53:38;;;;;;;39.22;23.92;;;2.00;99.90;;;;;;5075417;28;20226;-66
2022/01/25 03:56:07;;;;;;;36.38;24.17;;;2.00;99.90;;;;;;5075472;28;20290;-66
2022/01/25 03:58:33;;;;;;;38.42;24.10;;;1.90;99.90;;;;;;5075527;28;20205;-66
2022/01/25 04:01:00;;;;;;;36.42;24.80;;;1.80;99.90;;;;;;5074832;28;20671;-66
2022/01/25 04:03:32;;;;;;;40.03;25.20;;;1.90;99.90;;;;;;5074983;28;20219;-66
2022/01/25 04:05:59;;;;;;;36.20;23.65;;;2.00;99.90;;;;;;5075139;28;20664;-66
2022/01/25 04:08:26;;;;;;;40.67;24.90;;;2.00;99.90;;;;;;5075325;28;20209;-66
2022/01/25 04:10:53;;;;;;;35.90;23.73;;;2.00;99.90;;;;;;5074583;28;20203;-67
2022/01/25 04:13:21;;;;;;;36.97;22.17;;;2.10;99.90;;;;;;5074856;28;20529;-67
2022/01/25 04:15:50;;;;;;;37.08;23.65;;;2.10;99.90;;;;;;5074633;28;20206;-67
2022/01/25 04:18:26;;;;;;;32.00;21.55;;;2.10;99.90;;;;;;5073948;28;20207;-67
2022/01/25 04:21:03;;;;;;;35.80;22.27;;;2.10;99.90;;;;;;5074622;28;20230;-66
2022/01/25 04:26:14;;;;;;;34.45;23.27;;;2.20;99.90;;;;;;5075160;28;20221;-67
2022/01/25 04:28:43;;;;;;;35.95;22.23;;;2.20;99.90;;;;;;5074939;28;20207;-66
2022/01/25 04:31:10;;;;;;;37.92;23.17;;;2.30;99.90;;;;;;5074844;28;20536;-66
2022/01/25 04:33:43;;;;;;;31.95;22.02;;;2.30;99.90;;;;;;5074491;28;20704;-66
2022/01/25 04:36:39;;;;;;;33.22;22.10;;;2.20;99.90;;;;;;5075268;28;20194;-66
2022/01/25 04:50:09;;;;;;;36.58;23.20;;;2.10;99.90;;;;;;5074119;28;20201;-66
2022/01/25 04:52:46;;;;;;;33.80;23.27;;;2.10;99.90;;;;;;5074562;28;20203;-66
2022/01/25 04:55:20;;;;;;;37.15;22.88;;;2.00;99.90;;;;;;5074189;28;20221;-66
2022/01/25 04:57:52;;;;;;;39.13;23.67;;;1.90;99.90;;;;;;5074011;28;20203;-66
2022/01/25 05:00:22;;;;;;;36.22;23.85;;;1.90;99.90;;;;;;5073735;28;20260;-66
2022/01/25 05:02:53;;;;;;;32.92;22.17;;;1.90;99.90;;;;;;5073878;28;20286;-66
2022/01/25 05:05:27;;;;;;;34.53;22.65;;;2.00;99.90;;;;;;5074715;28;20584;-66
2022/01/25 05:08:00;;;;;;;36.28;21.98;;;2.00;99.90;;;;;;5073586;28;20763;-66
2022/01/25 05:10:28;;;;;;;33.67;23.17;;;2.10;99.90;;;;;;5073646;28;20203;-66
2022/01/25 05:13:12;;;;;;;31.63;22.05;;;2.00;99.90;;;;;;5073992;28;20202;-66
2022/01/25 05:16:03;;;;;;;31.95;22.13;;;2.10;99.90;;;;;;5073804;28;20293;-66
2022/01/25 05:18:40;;;;;;;36.60;22.27;;;2.10;99.90;;;;;;5073798;28;20215;-67
2022/01/25 05:23:53;;;;;;;37.17;23.92;;;2.00;99.90;;;;;;5073979;28;20221;-66
2022/01/25 05:26:20;;;;;;;35.97;23.65;;;2.10;99.90;;;;;;5073666;28;20331;-67
2022/01/25 05:28:47;;;;;;;35.47;23.20;;;2.10;99.90;;;;;;5073524;28;20298;-67
2022/01/25 05:31:15;;;;;;;34.25;23.80;;;2.00;99.90;;;;;;5073416;28;20552;-66
2022/01/25 05:33:42;;;;;;;37.88;23.85;;;2.10;99.90;;;;;;5073907;28;20228;-66
2022/01/25 05:36:09;;;;;;;33.92;22.60;;;2.00;99.90;;;;;;5074030;28;20736;-66
2022/01/25 05:38:36;;;;;;;30.42;22.02;;;2.00;99.90;;;;;;5073656;28;20214;-66
2022/01/25 05:41:04;;;;;;;32.78;22.00;;;2.00;99.90;;;;;;5073468;28;20202;-66
2022/01/25 05:46:19;;;;;;;34.47;22.55;;;2.10;99.90;;;;;;5074171;28;20640;-66
2022/01/25 05:48:47;;;;;;;31.70;21.45;;;2.00;99.90;;;;;;5074261;28;20211;-66
2022/01/25 05:51:15;;;;;;;34.63;22.30;;;2.00;99.90;;;;;;5073339;28;20280;-66
2022/01/25 05:53:42;;;;;;;34.47;21.65;;;2.00;99.90;;;;;;5073621;28;20720;-66
2022/01/25 05:56:10;;;;;;;31.10;22.77;;;2.00;99.90;;;;;;5073496;28;20217;-66
2022/01/25 05:58:36;;;;;;;29.90;21.77;;;2.00;99.90;;;;;;5073862;28;20579;-66
2022/01/25 06:01:04;;;;;;;34.97;24.00;;;1.90;99.90;;;;;;5073353;28;20295;-66
2022/01/25 06:03:32;;;;;;;35.53;22.55;;;1.90;99.90;;;;;;5073953;28;20223;-66
2022/01/25 06:06:00;;;;;;;34.22;21.55;;;1.90;99.90;;;;;;5073503;28;20230;-66
2022/01/25 06:08:27;;;;;;;34.03;22.95;;;2.00;99.90;;;;;;5073526;28;20229;-67
2022/01/25 06:10:56;;;;;;;34.70;22.88;;;2.00;99.90;;;;;;5073285;28;20209;-66
2022/01/25 06:13:22;;;;;;;30.40;21.98;;;1.90;99.90;;;;;;5073700;28;20292;-67
2022/01/25 06:15:49;;;;;;;34.70;22.60;;;1.90;99.90;;;;;;5074112;28;20213;-67
2022/01/25 06:18:16;;;;;;;38.22;23.08;;;1.80;99.90;;;;;;5073076;28;20301;-67
2022/01/25 06:20:44;;;;;;;33.53;22.67;;;1.80;99.90;;;;;;5073389;28;20203;-66
2022/01/25 06:23:11;;;;;;;34.50;23.73;;;1.90;99.90;;;;;;5073219;28;20226;-66
2022/01/25 06:25:38;;;;;;;36.28;24.33;;;1.90;99.90;;;;;;5062104;28;20686;-67
2022/01/25 06:28:05;;;;;;;35.20;23.27;;;1.80;99.90;;;;;;5052291;28;20318;-67
2022/01/25 06:30:32;;;;;;;34.95;23.05;;;1.80;99.90;;;;;;5051846;28;20203;-66
2022/01/25 06:32:59;;;;;;;35.80;23.35;;;1.80;99.90;;;;;;5051985;28;20294;-67
2022/01/25 06:35:28;;;;;;;38.50;23.33;;;1.80;99.90;;;;;;5052085;28;20203;-67
2022/01/25 06:37:56;;;;;;;32.60;22.33;;;1.80;99.90;;;;;;5052073;28;20298;-67
2022/01/25 06:40:24;;;;;;;34.90;24.00;;;1.80;99.90;;;;;;5051845;28;20741;-67
2022/01/25 06:42:51;;;;;;;38.70;23.67;;;1.70;99.90;;;;;;5054266;28;20199;-67
2022/01/25 06:45:20;;;;;;;33.85;22.75;;;1.80;99.90;;;;;;5055663;28;20199;-67
2022/01/25 06:47:49;;;;;;;38.25;23.70;;;1.80;99.90;;;;;;5055653;28;20215;-67
2022/01/25 06:50:24;;;;;;;35.38;23.33;;;1.80;99.90;;;;;;5055116;28;20230;-67
2022/01/25 06:52:52;;;;;;;37.65;22.45;;;1.70;99.90;;;;;;5055318;28;20209;-67
2022/01/25 06:55:21;;;;;;;38.13;24.27;;;1.70;99.90;;;;;;5055131;28;20210;-67
2022/01/25 06:57:56;;;;;;;37.38;23.80;;;1.70;99.90;;;;;;5055016;28;20290;-66
2022/01/25 07:00:24;;;;;;;39.92;24.75;;;1.70;99.90;;;;;;5055142;28;20203;-66
2022/01/25 07:02:51;;;;;;;37.40;24.08;;;1.80;99.90;;;;;;5055443;28;20569;-66
2022/01/25 07:05:18;;;;;;;36.38;23.40;;;1.80;99.90;;;;;;5055205;28;20577;-67
2022/01/25 07:07:46;;;;;;;34.53;22.83;;;1.80;99.90;;;;;;5055142;28;20223;-67
2022/01/25 07:10:13;;;;;;;35.85;22.73;;;1.90;99.90;;;;;;5054880;28;20203;-68
2022/01/25 07:12:41;;;;;;;34.40;22.95;;;1.90;99.90;;;;;;5055830;28;20203;-66
2022/01/25 07:15:09;;;;;;;34.25;23.73;;;1.90;99.90;;;;;;5055546;28;20311;-67
2022/01/25 07:17:36;;;;;;;31.85;23.63;;;1.90;99.90;;;;;;5056005;28;20295;-67
2022/01/25 07:20:06;;;;;;;34.50;23.33;;;1.90;99.90;;;;;;5056422;28;20206;-67
2022/01/25 07:22:33;;;;;;;31.48;22.73;;;1.90;99.90;;;;;;5057204;28;20203;-67
2022/01/25 07:24:59;;;;;;;33.67;23.40;;;2.00;99.90;;;;;;5056428;28;20598;-67
2022/01/25 07:27:26;;;;;;;33.40;22.02;;;1.90;99.90;;;;;;5055631;28;20227;-67
2022/01/25 07:29:55;;;;;;;35.45;23.45;;;1.90;99.90;;;;;;5055476;28;20708;-67
2022/01/25 07:32:21;;;;;;;36.47;24.67;;;1.90;99.90;;;;;;5055986;28;20205;-67
2022/01/25 07:34:48;;;;;;;36.92;26.05;;;1.80;99.90;;;;;;5056168;28;20413;-67
2022/01/25 07:37:15;;;;;;;38.22;24.23;;;1.80;99.90;;;;;;5055546;28;20573;-67
2022/01/25 07:39:44;;;;;;;42.05;25.80;;;1.80;99.90;;;;;;5055150;28;20207;-67
2022/01/25 07:42:12;;;;;;;39.45;24.65;;;1.80;99.90;;;;;;5055389;28;20203;-67
2022/01/25 07:44:39;;;;;;;37.97;24.23;;;1.80;99.90;;;;;;5055430;28;20234;-67
2022/01/25 07:47:08;;;;;;;39.67;25.30;;;1.70;99.90;;;;;;5055665;28;20219;-67
2022/01/25 07:49:35;;;;;;;37.92;24.23;;;1.70;99.90;;;;;;5055679;28;20545;-67
2022/01/25 07:52:04;;;;;;;37.20;24.63;;;1.70;99.90;;;;;;5055452;28;20214;-67
2022/01/25 07:54:31;;;;;;;37.75;24.75;;;1.80;99.90;;;;;;5055176;28;20227;-67
2022/01/25 07:56:58;;;;;;;36.53;24.92;;;1.80;99.90;;;;;;5055157;28;20653;-67
2022/01/25 07:59:24;;;;;;;40.25;25.35;;;1.90;99.90;;;;;;5055009;28;20203;-67
2022/01/25 08:01:52;;;;;;;42.53;25.02;;;2.00;99.90;;;;;;5054851;28;20588;-67
2022/01/25 08:04:21;;;;;;;35.88;24.77;;;2.00;99.90;;;;;;5054791;28;20223;-67
2022/01/25 08:06:48;;;;;;;35.35;22.95;;;2.10;99.90;;;;;;5054915;28;20214;-67
2022/01/25 08:09:15;;;;;;;37.70;23.27;;;2.20;99.90;;;;;;5055067;28;20208;-68
2022/01/25 08:11:42;;;;;;;37.42;24.77;;;2.20;99.90;;;;;;5054859;28;20294;-67
2022/01/25 08:14:13;;;;;;;38.05;25.48;;;2.20;99.90;;;;;;5054665;28;20223;-67
2022/01/25 08:16:41;;;;;;;36.83;23.15;;;2.00;99.90;;;;;;5054980;28;20286;-68
2022/01/25 08:19:08;;;;;;;38.83;25.00;;;1.90;99.90;;;;;;5055169;28;20206;-67
2022/01/25 08:21:37;;;;;;;38.45;24.85;;;1.80;99.90;;;;;;5054415;28;20200;-67
2022/01/25 08:24:05;;;;;;;34.78;22.83;;;1.90;99.90;;;;;;5054579;28;20611;-67
2022/01/25 08:26:32;;;;;;;36.88;24.10;;;2.10;99.90;;;;;;5054825;28;20295;-67
2022/01/25 08:28:58;;;;;;;34.97;23.83;;;2.20;99.90;;;;;;5054851;28;20223;-67
2022/01/25 08:31:25;;;;;;;38.42;24.15;;;2.10;99.90;;;;;;5054077;28;20204;-67
2022/01/25 08:33:53;;;;;;;38.88;25.75;;;1.90;99.90;;;;;;5054380;28;20223;-67
2022/01/25 08:36:20;;;;;;;43.90;27.13;;;1.90;99.90;;;;;;5054438;28;20199;-67
2022/01/25 08:38:48;;;;;;;46.25;27.17;;;2.00;99.90;;;;;;5054399;28;20199;-67
2022/01/25 08:41:15;;;;;;;41.97;27.00;;;1.90;99.90;;;;;;5054418;28;20538;-67
2022/01/25 08:43:42;;;;;;;44.88;27.70;;;1.90;99.90;;;;;;5054439;28;20281;-67
2022/01/25 08:46:09;;;;;;;40.03;26.25;;;1.90;99.90;;;;;;5055000;28;20294;-67
2022/01/25 08:48:36;;;;;;;42.25;27.98;;;1.90;99.90;;;;;;5054224;28;20249;-67
2022/01/25 08:51:04;;;;;;;41.05;27.10;;;1.90;99.90;;;;;;5054123;28;20203;-67
2022/01/25 08:53:31;;;;;;;41.80;27.13;;;1.90;99.90;;;;;;5054303;28;20249;-67
2022/01/25 08:55:59;;;;;;;46.95;28.67;;;2.00;99.90;;;;;;5054610;28;20622;-67
2022/01/25 08:58:26;;;;;;;44.42;28.02;;;2.10;99.90;;;;;;5054402;28;20195;-67
2022/01/25 09:00:54;;;;;;;41.55;27.00;;;2.20;99.90;;;;;;5054103;28;20207;-67
2022/01/25 09:03:21;;;;;;;46.92;27.95;;;2.40;99.90;;;;;;5053783;28;20682;-67
2022/01/25 09:05:48;;;;;;;48.28;30.83;;;2.20;99.90;;;;;;5053839;28;20537;-67
2022/01/25 09:08:20;;;;;;;53.60;33.75;;;2.10;99.90;;;;;;5053975;28;20229;-67
2022/01/25 09:10:47;;;;;;;54.58;33.25;;;1.90;99.90;;;;;;5053727;28;20211;-67
2022/01/25 09:13:15;;;;;;;58.97;33.97;;;1.80;99.90;;;;;;5054163;28;20230;-67
2022/01/25 09:15:42;;;;;;;52.95;33.67;;;1.70;99.90;;;;;;5053706;28;20725;-67
2022/01/25 09:18:08;;;;;;;54.13;33.20;;;1.60;99.90;;;;;;5053850;28;20297;-67
2022/01/25 09:20:35;;;;;;;56.40;33.22;;;1.50;99.90;;;;;;5053601;28;20581;-67
2022/01/25 09:23:02;;;;;;;47.92;32.50;;;1.40;99.90;;;;;;5054040;28;20209;-67
2022/01/25 09:25:29;;;;;;;53.88;31.77;;;1.30;99.90;;;;;;5054389;28;20231;-67
2022/01/25 09:27:56;;;;;;;53.00;32.03;;;1.30;99.90;;;;;;5053553;28;20251;-67
2022/01/25 09:30:24;;;;;;;48.50;31.90;;;1.50;99.90;;;;;;5053574;28;20214;-67
2022/01/25 09:32:51;;;;;;;48.67;32.65;;;1.60;99.90;;;;;;5053714;28;20716;-67
2022/01/25 09:35:18;;;;;;;46.22;31.75;;;1.50;99.90;;;;;;5054179;28;20717;-67
2022/01/25 09:37:45;;;;;;;46.42;30.70;;;1.50;99.90;;;;;;5053942;28;20206;-67
2022/01/25 09:40:14;;;;;;;52.65;32.92;;;1.60;99.90;;;;;;5053681;28;20226;-67
2022/01/25 09:42:41;;;;;;;47.13;30.42;;;1.60;99.90;;;;;;5053636;28;20208;-67
2022/01/25 09:45:09;;;;;;;45.55;30.58;;;1.80;99.90;;;;;;5053717;28;20258;-67
2022/01/25 09:47:39;;;;;;;46.05;29.35;;;2.00;99.90;;;;;;5053759;28;20205;-67
2022/01/25 09:50:07;;;;;;;45.58;28.40;;;2.20;99.90;;;;;;5053621;28;20257;-67
2022/01/25 09:52:34;;;;;;;44.10;29.40;;;2.30;99.90;;;;;;5054005;28;20226;-67
2022/01/25 09:55:02;;;;;;;45.85;29.35;;;2.40;99.90;;;;;;5053465;28;20318;-67
2022/01/25 09:57:29;;;;;;;46.65;28.65;;;2.50;99.90;;;;;;5053282;28;20200;-67
2022/01/25 09:59:57;;;;;;;41.30;29.48;;;2.50;99.90;;;;;;5053390;28;20211;-67
2022/01/25 10:02:43;;;;;;;44.00;30.15;;;2.60;99.90;;;;;;5053638;28;20696;-67
2022/01/25 10:05:18;;;;;;;41.63;29.55;;;2.50;99.90;;;;;;5054018;28;20256;-67
2022/01/25 10:07:55;;;;;;;47.35;31.30;;;2.40;99.90;;;;;;5053250;28;20225;-67
2022/01/25 10:10:22;;;;;;;48.55;31.45;;;2.40;99.90;;;;;;5053115;28;20657;-67
2022/01/25 10:12:49;;;;;;;47.28;33.00;;;2.30;99.90;;;;;;5053658;28;20214;-67
2022/01/25 10:15:16;;;;;;;47.95;31.50;;;2.30;99.90;;;;;;5053507;28;20319;-67
2022/01/25 10:17:45;;;;;;;50.47;31.88;;;2.20;99.90;;;;;;5055290;28;20225;-67
2022/01/25 10:20:26;;;;;;;51.90;32.80;;;2.20;99.90;;;;;;5057033;28;20237;-67
2022/01/25 10:22:53;;;;;;;47.50;31.90;;;2.20;99.90;;;;;;5057134;28;20203;-67
2022/01/25 10:25:30;;;;;;;47.72;30.27;;;2.10;99.90;;;;;;5057519;28;20253;-67
2022/01/25 10:28:01;;;;;;;46.95;31.92;;;2.10;99.90;;;;;;5057226;28;20677;-67
2022/01/25 10:30:32;;;;;;;48.10;31.35;;;2.10;99.90;;;;;;5056594;28;20206;-67
2022/01/25 10:33:16;;;;;;;55.28;33.17;;;2.20;99.90;;;;;;5056952;28;20210;-67
2022/01/25 10:35:43;;;;;;;50.63;31.98;;;2.30;99.90;;;;;;5057283;28;20188;-67
2022/01/25 10:38:18;;;;;;;56.47;34.03;;;2.40;99.90;;;;;;5056981;28;20660;-67
2022/01/25 10:40:53;;;;;;;48.50;31.25;;;2.50;99.90;;;;;;5056592;28;20210;-67
2022/01/25 10:43:21;;;;;;;49.72;32.13;;;2.60;99.90;;;;;;5056482;28;20234;-67
2022/01/25 10:46:07;;;;;;;49.45;29.92;;;2.70;99.90;;;;;;5056726;28;20207;-67
2022/01/25 10:48:36;;;;;;;46.10;31.65;;;2.90;99.90;;;;;;5056865;28;20223;-67
2022/01/25 10:51:05;;;;;;;46.60;30.58;;;2.90;99.90;;;;;;5056234;28;20208;-67
2022/01/25 10:53:32;;;;;;;50.97;31.85;;;3.00;99.90;;;;;;5056192;28;20705;-67
2022/01/25 10:56:00;;;;;;;46.00;32.90;;;3.00;99.90;;;;;;5056597;28;20624;-67
2022/01/25 10:58:27;;;;;;;43.55;30.13;;;3.20;99.90;;;;;;5056429;28;20202;-67
2022/01/25 11:00:55;;;;;;;53.22;32.05;;;3.20;99.90;;;;;;5055862;28;20205;-67
2022/01/25 11:03:30;;;;;;;48.10;33.10;;;3.20;99.90;;;;;;5055971;28;20311;-67
2022/01/25 11:06:09;;;;;;;52.22;33.05;;;3.10;99.90;;;;;;5056064;28;20250;-67
2022/01/25 11:08:38;;;;;;;46.30;30.50;;;3.20;99.90;;;;;;5056118;28;20219;-67
2022/01/25 11:11:09;;;;;;;48.78;30.50;;;3.20;99.90;;;;;;5056319;28;20546;-67
2022/01/25 11:13:38;;;;;;;51.28;32.60;;;3.20;99.90;;;;;;5056376;28;20227;-67
2022/01/25 11:16:07;;;;;;;49.45;31.50;;;3.20;99.90;;;;;;5056433;28;20249;-67
2022/01/25 11:18:34;;;;;;;46.50;30.73;;;3.20;99.90;;;;;;5055820;28;20207;-67
2022/01/25 11:21:05;;;;;;;52.45;30.98;;;3.50;99.90;;;;;;5056062;28;20200;-67
2022/01/25 11:23:33;;;;;;;50.42;32.55;;;3.60;99.90;;;;;;5056104;28;20322;-67
2022/01/25 11:26:02;;;;;;;44.33;30.25;;;3.80;99.90;;;;;;5056438;28;20207;-67
2022/01/25 11:28:31;;;;;;;43.72;30.40;;;4.00;99.90;;;;;;5055572;28;20673;-67
2022/01/25 11:31:00;;;;;;;44.22;29.67;;;4.30;99.90;;;;;;5055476;28;20673;-67
2022/01/25 11:33:28;;;;;;;43.15;29.65;;;4.50;99.90;;;;;;5055749;28;20572;-67
2022/01/25 11:35:55;;;;;;;42.03;31.25;;;4.50;99.90;;;;;;5055819;28;20200;-67
2022/01/25 11:38:32;;;;;;;48.78;31.83;;;4.30;99.90;;;;;;5055525;28;20300;-67
2022/01/25 11:40:59;;;;;;;45.75;32.70;;;4.20;99.90;;;;;;5055437;28;20199;-67
2022/01/25 11:43:26;;;;;;;43.42;30.52;;;4.40;99.90;;;;;;5055311;28;20224;-67
2022/01/25 11:46:03;;;;;;;46.28;32.30;;;4.40;99.90;;;;;;5055386;28;20234;-67
2022/01/25 11:48:38;;;;;;;49.75;34.60;;;4.50;99.90;;;;;;5055427;28;20218;-67
2022/01/25 11:51:15;;;;;;;44.42;31.48;;;4.50;99.90;;;;;;5055221;28;20294;-67
2022/01/25 11:53:45;;;;;;;47.00;32.25;;;4.40;99.90;;;;;;5055771;28;20235;-67
2022/01/25 11:56:13;;;;;;;47.95;33.95;;;4.20;99.90;;;;;;5055461;28;20276;-67
2022/01/25 11:58:41;;;;;;;51.90;34.10;;;4.20;99.90;;;;;;5055692;28;20207;-67
2022/01/25 12:01:18;;;;;;;52.53;33.38;;;4.10;99.90;;;;;;5055313;28;20208;-67
2022/01/25 12:03:48;;;;;;;45.28;31.73;;;4.10;99.90;;;;;;5055464;28;20632;-67
2022/01/25 12:06:22;;;;;;;56.38;35.22;;;4.00;99.90;;;;;;5055099;28;20203;-67
2022/01/25 12:09:13;;;;;;;46.50;32.75;;;4.10;99.90;;;;;;5055188;28;20238;-67
2022/01/25 12:11:45;;;;;;;45.58;32.08;;;4.20;99.90;;;;;;5055449;28;20207;-67
2022/01/25 12:14:16;;;;;;;44.67;32.20;;;4.30;99.90;;;;;;5055311;28;20232;-67
2022/01/25 12:16:45;;;;;;;43.63;30.73;;;4.50;99.90;;;;;;5054554;28;20184;-67
2022/01/25 12:19:14;;;;;;;46.53;33.45;;;4.60;99.90;;;;;;5054976;28;20550;-67
2022/01/25 12:21:57;;;;;;;45.90;32.42;;;4.60;99.90;;;;;;5054911;28;20207;-67
2022/01/25 12:24:30;;;;;;;45.55;29.85;;;4.70;99.90;;;;;;5055244;28;20281;-67
2022/01/25 12:27:02;;;;;;;47.13;31.73;;;4.80;99.90;;;;;;5055079;28;20194;-67
2022/01/25 12:29:33;;;;;;;46.50;31.70;;;4.90;99.90;;;;;;5054375;28;20220;-67
2022/01/25 12:32:35;;;;;;;46.17;34.03;;;4.90;99.90;;;;;;5054625;28;20206;-67
2022/01/25 12:35:10;;;;;;;48.20;33.53;;;5.00;99.90;;;;;;4993630;28;20328;-67
2022/01/25 12:37:59;;;;;;;45.08;32.55;;;5.20;99.90;;;;;;4992988;28;20215;-67
2022/01/25 12:41:03;;;;;;;46.22;34.70;;;5.50;99.90;;;;;;5032886;28;20203;-67
2022/01/25 12:43:34;;;;;;;52.70;34.78;;;5.40;99.90;;;;;;5054855;28;20219;-67
2022/01/25 12:46:06;;;;;;;48.28;33.67;;;5.40;99.90;;;;;;5054137;28;20661;-67
2022/01/25 12:48:35;;;;;;;47.72;33.20;;;5.70;99.90;;;;;;5054355;28;20203;-67
2022/01/25 12:51:05;;;;;;;49.17;34.00;;;6.00;99.90;;;;;;5054224;28;20298;-67
2022/01/25 12:53:33;;;;;;;46.03;34.60;;;6.00;99.90;;;;;;5054088;28;20772;-67
2022/01/25 12:56:05;;;;;;;40.35;30.15;;;6.30;99.90;;;;;;5054404;28;20200;-67
2022/01/25 12:58:33;;;;;;;45.47;33.15;;;6.30;99.90;;;;;;5054118;28;20207;-68
2022/01/25 13:01:03;;;;;;;43.70;32.17;;;6.50;99.90;;;;;;5053941;28;20587;-67
2022/01/25 13:03:32;;;;;;;45.33;32.95;;;6.40;99.90;;;;;;5054115;28;20249;-67
2022/01/25 13:06:02;;;;;;;45.58;32.05;;;6.60;99.90;;;;;;5054185;28;20322;-68
2022/01/25 13:08:37;;;;;;;44.65;32.33;;;6.70;99.90;;;;;;5054426;28;20211;-67
2022/01/25 13:11:23;;;;;;;46.05;31.25;;;6.80;99.90;;;;;;5053742;28;20630;-68
2022/01/25 13:14:14;;;;;;;44.00;32.08;;;6.80;99.90;;;;;;5053716;28;20223;-68
2022/01/25 13:16:50;;;;;;;43.40;31.35;;;6.70;99.90;;;;;;5054061;28;20646;-68
2022/01/25 13:19:21;;;;;;;43.45;30.15;;;6.50;99.90;;;;;;5053555;28;20649;-67
2022/01/25 13:21:52;;;;;;;44.78;31.60;;;6.30;99.90;;;;;;5053842;28;20293;-67
2022/01/25 13:24:21;;;;;;;41.83;30.15;;;6.30;99.90;;;;;;5053785;28;20227;-67
2022/01/25 13:26:58;;;;;;;43.50;30.23;;;6.40;99.90;;;;;;5053485;28;20239;-67
2022/01/25 13:32:22;;;;;;;43.08;30.45;;;6.10;99.90;;;;;;5036224;28;20645;-67
2022/01/25 13:35:17;;;;;;;48.25;32.00;;;6.10;99.90;;;;;;5053692;28;20697;-68
2022/01/25 13:37:45;;;;;;;45.22;31.65;;;6.00;99.90;;;;;;5054136;28;20218;-67
2022/01/25 13:40:14;;;;;;;44.97;31.05;;;5.80;99.90;;;;;;5053226;28;20203;-67
2022/01/25 13:42:56;;;;;;;42.42;29.45;;;5.80;99.90;;;;;;5053686;28;20207;-67
2022/01/25 13:48:10;;;;;;;48.38;31.20;;;5.40;99.90;;;;;;5053770;28;20202;-67
2022/01/25 13:50:39;;;;;;;43.88;30.20;;;5.30;99.90;;;;;;5053759;28;20313;-67
2022/01/25 13:53:07;;;;;;;45.55;30.88;;;5.20;99.90;;;;;;5057607;28;20199;-67
2022/01/25 13:55:35;;;;;;;46.22;30.85;;;5.10;99.90;;;;;;5057953;28;20552;-67
2022/01/25 13:58:18;;;;;;;50.53;31.42;;;5.00;99.90;;;;;;5057757;28;20203;-67
2022/01/25 14:00:45;;;;;;;45.88;29.33;;;5.00;99.90;;;;;;5056997;28;20213;-67
2022/01/25 14:03:15;;;;;;;47.10;31.02;;;5.10;99.90;;;;;;5057369;28;20294;-67
2022/01/25 14:05:42;;;;;;;53.17;33.05;;;5.10;99.90;;;;;;5057505;28;20298;-67
2022/01/25 14:08:09;;;;;;;50.00;32.15;;;5.20;99.90;;;;;;5057582;28;20203;-67
2022/01/25 14:10:36;;;;;;;47.88;30.48;;;5.30;99.90;;;;;;5056851;28;20233;-67